createdAt,value
2023-02-13T00:00:24.801Z,5.37
2023-02-13T00:02:51.461Z,5.40
2023-02-13T00:05:25.078Z,5.43
2023-02-13T00:07:51.619Z,5.34
2023-02-13T00:10:18.057Z,5.41
2023-02-13T00:12:44.507Z,5.39
2023-02-13T00:15:11.007Z,5.32
2023-02-13T00:17:39.818Z,5.29
2023-02-13T00:20:07.079Z,5.39
2023-02-13T00:22:39.445Z,5.37
2023-02-13T00:25:06.901Z,5.34
2023-02-13T00:27:33.792Z,5.27
2023-02-13T00:30:02.849Z,5.29
2023-02-13T00:32:29.336Z,5.28
2023-02-13T00:34:56.544Z,5.19
2023-02-13T00:37:23.189Z,5.21
2023-02-13T00:39:49.632Z,5.24
2023-02-13T00:42:16.119Z,5.28
2023-02-13T00:44:42.617Z,5.33
2023-02-13T00:47:09.780Z,5.26
2023-02-13T00:49:36.273Z,5.23
2023-02-13T00:52:06.176Z,5.16
2023-02-13T00:54:32.636Z,5.19
2023-02-13T00:56:59.095Z,5.17
2023-02-13T00:59:25.604Z,5.06
2023-02-13T01:01:52.068Z,5.11
2023-02-13T01:04:25.222Z,5.01
2023-02-13T01:06:51.736Z,5.01
2023-02-13T01:09:18.178Z,4.98
2023-02-13T01:11:44.670Z,4.97
2023-02-13T01:14:11.114Z,4.94
2023-02-13T01:16:37.781Z,4.96
2023-02-13T01:19:04.851Z,5.03
2023-02-13T01:21:31.369Z,5.01
2023-02-13T01:23:57.804Z,5.02
2023-02-13T01:26:25.237Z,4.99
2023-02-13T01:28:54.536Z,4.96
2023-02-13T01:31:24.278Z,4.96
2023-02-13T01:33:51.703Z,4.94
2023-02-13T01:36:18.179Z,4.91
2023-02-13T01:38:46.956Z,4.93
2023-02-13T01:41:15.475Z,4.90
2023-02-13T01:44:02.529Z,4.87
2023-02-13T01:46:44.039Z,4.87
2023-02-13T01:49:13.510Z,4.90
2023-02-13T01:51:40.718Z,4.89
2023-02-13T01:54:31.137Z,4.85
2023-02-13T01:57:05.234Z,4.83
2023-02-13T01:59:43.349Z,4.80
2023-02-13T02:02:10.047Z,4.81
2023-02-13T02:04:40.080Z,4.80
2023-02-13T02:07:20.041Z,4.77
2023-02-13T02:09:47.224Z,4.72
2023-02-13T02:12:25.014Z,4.63
2023-02-13T02:14:54.268Z,4.63
2023-02-13T02:17:24.137Z,4.58
2023-02-13T02:20:24.265Z,4.56
2023-02-13T02:23:10.164Z,4.50
2023-02-13T02:26:07.644Z,4.49
2023-02-13T02:29:05.405Z,4.47
2023-02-13T02:31:54.672Z,4.43
2023-02-13T02:34:39.958Z,4.42
2023-02-13T02:37:26.362Z,4.46
2023-02-13T02:40:23.662Z,4.37
2023-02-13T02:43:20.518Z,4.38
2023-02-13T02:45:56.839Z,4.40
2023-02-13T02:48:54.029Z,4.37
2023-02-13T02:51:40.720Z,4.38
2023-02-13T02:54:36.501Z,4.41
2023-02-13T02:57:13.941Z,4.16
2023-02-13T03:00:00.575Z,4.20
2023-02-13T03:02:48.659Z,4.16
2023-02-13T03:05:39.738Z,4.13
2023-02-13T03:08:07.166Z,4.09
2023-02-13T03:10:55.676Z,4.12
2023-02-13T03:13:40.963Z,4.15
2023-02-13T03:16:34.603Z,4.24
2023-02-13T03:19:19.772Z,4.20
2023-02-13T03:22:15.386Z,4.02
2023-02-13T03:24:53.906Z,4.00
2023-02-13T03:27:52.914Z,3.98
2023-02-13T03:30:40.595Z,3.93
2023-02-13T03:33:19.601Z,3.91
2023-02-13T03:36:07.915Z,3.97
2023-02-13T03:38:52.211Z,3.94
2023-02-13T03:41:23.720Z,3.92
2023-02-13T03:43:59.027Z,3.89
2023-02-13T03:46:29.681Z,3.78
2023-02-13T03:49:16.458Z,3.75
2023-02-13T03:52:04.249Z,3.75
2023-02-13T03:55:06.233Z,3.69
2023-02-13T03:57:53.355Z,3.69
2023-02-13T04:00:21.515Z,3.67
2023-02-13T04:02:57.509Z,3.70
2023-02-13T04:05:27.916Z,3.71
2023-02-13T04:07:54.433Z,3.72
2023-02-13T04:10:23.807Z,3.69
2023-02-13T04:13:02.650Z,3.73
2023-02-13T04:15:37.362Z,3.72
2023-02-13T04:18:27.400Z,3.77
2023-02-13T04:20:53.972Z,3.85
2023-02-13T04:23:20.578Z,3.86
2023-02-13T04:25:50.529Z,3.86
2023-02-13T04:28:17.094Z,3.89
2023-02-13T04:30:46.508Z,3.87
2023-02-13T04:33:13.036Z,3.90
2023-02-13T04:35:41.852Z,3.91
2023-02-13T04:38:08.429Z,3.83
2023-02-13T04:40:37.429Z,3.82
2023-02-13T04:43:03.927Z,3.87
2023-02-13T04:45:30.507Z,3.88
2023-02-13T04:47:57.792Z,3.91
2023-02-13T04:50:25.130Z,3.95
2023-02-13T04:53:05.558Z,3.92
2023-02-13T04:55:32.046Z,3.82
2023-02-13T04:58:08.543Z,3.86
2023-02-13T05:00:35.024Z,3.95
2023-02-13T05:03:11.482Z,3.84
2023-02-13T05:05:38.531Z,3.80
2023-02-13T05:08:05.746Z,3.85
2023-02-13T05:10:32.195Z,3.88
2023-02-13T05:13:01.040Z,3.86
2023-02-13T05:15:27.910Z,3.83
2023-02-13T05:17:54.443Z,3.87
2023-02-13T05:20:21.127Z,3.86
2023-02-13T05:23:08.607Z,3.80
2023-02-13T05:25:36.543Z,3.81
2023-02-13T05:28:03.586Z,3.74
2023-02-13T05:30:30.245Z,3.74
2023-02-13T05:32:57.001Z,3.77
2023-02-13T05:35:26.042Z,3.77
2023-02-13T05:37:52.594Z,3.73
2023-02-13T05:40:19.151Z,3.72
2023-02-13T05:42:45.602Z,3.74
2023-02-13T05:45:12.067Z,3.73
2023-02-13T05:47:38.549Z,3.74
2023-02-13T05:50:05.558Z,3.74
2023-02-13T05:52:32.063Z,3.81
2023-02-13T05:54:59.640Z,3.79
2023-02-13T05:57:26.144Z,3.85
2023-02-13T05:59:55.010Z,3.82
2023-02-13T06:02:21.522Z,3.78
2023-02-13T06:04:47.999Z,3.83
2023-02-13T06:07:14.456Z,3.76
2023-02-13T06:09:41.075Z,3.76
2023-02-13T06:12:07.858Z,3.78
2023-02-13T06:14:34.367Z,3.81
2023-02-13T06:17:01.457Z,3.82
2023-02-13T06:19:27.912Z,3.78
2023-02-13T06:21:56.866Z,3.77
2023-02-13T06:24:23.435Z,3.74
2023-02-13T06:26:49.980Z,3.71
2023-02-13T06:29:16.505Z,3.71
2023-02-13T06:31:42.996Z,3.72
2023-02-13T06:34:09.609Z,3.68
2023-02-13T06:36:43.393Z,3.71
2023-02-13T06:39:11.133Z,3.76
2023-02-13T06:41:37.823Z,3.74
2023-02-13T06:44:14.163Z,3.88
2023-02-13T06:46:40.727Z,3.76
2023-02-13T06:49:07.307Z,3.72
2023-02-13T06:51:33.888Z,3.70
2023-02-13T06:54:00.438Z,3.80
2023-02-13T06:56:26.891Z,3.80
2023-02-13T06:58:53.464Z,3.79
2023-02-13T07:01:20.072Z,3.81
2023-02-13T07:03:51.652Z,3.75
2023-02-13T07:06:19.565Z,3.82
2023-02-13T07:08:46.641Z,3.84
2023-02-13T07:11:20.118Z,3.78
2023-02-13T07:13:46.614Z,3.87
2023-02-13T07:16:13.364Z,3.91
2023-02-13T07:18:39.926Z,3.94
2023-02-13T07:21:07.444Z,3.93
2023-02-13T07:23:36.572Z,3.94
2023-02-13T07:26:03.730Z,3.95
2023-02-13T07:28:30.880Z,3.96
2023-02-13T07:30:57.875Z,3.99
2023-02-13T07:33:24.697Z,4.04
2023-02-13T07:35:52.457Z,4.09
2023-02-13T07:38:19.484Z,4.09
2023-02-13T07:40:46.243Z,4.14
2023-02-13T07:43:13.330Z,4.17
2023-02-13T07:45:39.916Z,4.19
2023-02-13T07:48:06.544Z,4.29
2023-02-13T07:50:33.237Z,4.34
2023-02-13T07:53:02.139Z,4.38
2023-02-13T07:55:30.149Z,4.39
2023-02-13T07:57:56.934Z,4.32
2023-02-13T08:00:27.814Z,4.38
2023-02-13T08:02:54.343Z,4.50
2023-02-13T08:05:20.913Z,4.47
2023-02-13T08:07:47.395Z,4.52
2023-02-13T08:10:32.844Z,4.53
2023-02-13T08:12:59.931Z,4.62
2023-02-13T08:15:26.466Z,4.68
2023-02-13T08:17:53.342Z,4.71
2023-02-13T08:20:20.101Z,4.77
2023-02-13T08:22:46.646Z,4.82
2023-02-13T08:25:16.143Z,4.79
2023-02-13T08:27:42.786Z,4.86
2023-02-13T08:30:09.954Z,4.88
2023-02-13T08:32:52.895Z,4.96
2023-02-13T08:35:20.317Z,4.97
2023-02-13T08:37:47.660Z,4.89
2023-02-13T08:40:14.389Z,4.90
2023-02-13T08:42:40.842Z,4.95
2023-02-13T08:45:07.612Z,5.00
2023-02-13T08:47:43.559Z,5.05
2023-02-13T08:50:10.680Z,4.97
2023-02-13T08:52:37.176Z,5.01
2023-02-13T08:55:03.910Z,4.87
2023-02-13T08:57:31.297Z,4.91
2023-02-13T08:59:59.985Z,5.01
2023-02-13T09:02:26.541Z,5.00
2023-02-13T09:04:53.165Z,4.99
2023-02-13T09:07:19.648Z,5.18
2023-02-13T09:09:46.154Z,5.21
2023-02-13T09:12:13.554Z,5.22
2023-02-13T09:14:40.226Z,5.30
2023-02-13T09:17:11.948Z,5.41
2023-02-13T09:19:38.766Z,5.44
2023-02-13T09:22:05.430Z,5.52
2023-02-13T09:24:32.058Z,5.58
2023-02-13T09:26:58.641Z,5.47
2023-02-13T09:29:32.091Z,5.61
2023-02-13T09:31:58.788Z,5.63
2023-02-13T09:34:25.778Z,5.82
2023-02-13T09:36:53.704Z,5.94
2023-02-13T09:39:20.240Z,5.98
2023-02-13T09:41:59.811Z,6.00
2023-02-13T09:44:35.618Z,5.86
2023-02-13T09:47:14.040Z,5.82
2023-02-13T09:49:46.881Z,5.60
2023-02-13T09:52:13.367Z,5.63
2023-02-13T09:54:39.847Z,5.63
2023-02-13T09:57:40.645Z,5.69
2023-02-13T10:00:24.783Z,5.87
2023-02-13T10:03:16.825Z,6.21
2023-02-13T10:05:48.176Z,6.37
2023-02-13T10:08:27.668Z,6.60
2023-02-13T10:11:06.741Z,7.08
2023-02-13T10:14:01.317Z,7.11
2023-02-13T10:16:35.139Z,7.17
2023-02-13T10:19:18.857Z,6.99
2023-02-13T10:21:55.359Z,7.23
2023-02-13T10:24:57.962Z,7.12
2023-02-13T10:27:25.664Z,7.01
2023-02-13T10:30:07.090Z,7.06
2023-02-13T10:33:18.373Z,7.14
2023-02-13T10:35:59.063Z,7.18
2023-02-13T10:38:32.870Z,7.17
2023-02-13T10:41:22.234Z,7.36
2023-02-13T10:44:36.462Z,7.97
2023-02-13T10:47:30.400Z,8.08
2023-02-13T10:50:34.261Z,7.99
2023-02-13T10:53:15.338Z,7.77
2023-02-13T10:56:18.844Z,7.93
2023-02-13T10:58:45.196Z,7.58
2023-02-13T11:01:39.185Z,7.71
2023-02-13T11:04:07.720Z,7.44
2023-02-13T11:06:45.456Z,7.55
2023-02-13T11:09:13.644Z,7.88
2023-02-13T11:11:44.012Z,8.40
2023-02-13T11:14:19.309Z,8.09
2023-02-13T11:16:58.306Z,8.70
2023-02-13T11:19:51.608Z,8.94
2023-02-13T11:22:32.808Z,8.61
2023-02-13T11:25:20.078Z,8.85
2023-02-13T11:27:49.428Z,9.28
2023-02-13T11:30:33.502Z,9.31
2023-02-13T11:33:02.936Z,9.25
2023-02-13T11:35:35.586Z,9.59
2023-02-13T11:38:13.454Z,9.77
2023-02-13T11:40:42.400Z,9.90
2023-02-13T11:43:37.467Z,10.16
2023-02-13T11:46:18.471Z,10.35
2023-02-13T11:48:57.228Z,10.38
2023-02-13T11:51:44.002Z,10.37
2023-02-13T11:54:58.947Z,10.28
2023-02-13T11:57:34.816Z,10.29
2023-02-13T12:00:30.533Z,10.38
2023-02-13T12:02:57.202Z,10.87
2023-02-13T12:05:28.672Z,10.88
2023-02-13T12:08:01.890Z,11.03
2023-02-13T12:10:31.938Z,11.16
2023-02-13T12:13:07.249Z,11.06
2023-02-13T12:15:36.444Z,10.91
2023-02-13T12:18:08.884Z,11.16
2023-02-13T12:20:52.553Z,11.06
2023-02-13T12:23:48.944Z,11.49
2023-02-13T12:26:37.756Z,11.50
2023-02-13T12:29:10.122Z,11.58
2023-02-13T12:31:45.249Z,11.11
2023-02-13T12:34:50.744Z,11.35
2023-02-13T12:37:38.180Z,11.01
2023-02-13T12:40:31.712Z,10.79
2023-02-13T12:43:13.744Z,11.03
2023-02-13T12:45:50.386Z,11.06
2023-02-13T12:48:46.000Z,11.06
2023-02-13T12:51:27.639Z,11.31
2023-02-13T12:54:35.830Z,10.82
2023-02-13T12:57:07.464Z,11.11
2023-02-13T13:00:14.595Z,11.55
2023-02-13T13:03:18.618Z,11.25
2023-02-13T13:06:11.473Z,11.35
2023-02-13T13:08:49.503Z,11.51
2023-02-13T13:11:42.024Z,11.57
2023-02-13T13:14:19.726Z,11.45
2023-02-13T13:17:10.040Z,11.29
2023-02-13T13:20:18.202Z,11.17
2023-02-13T13:22:59.172Z,10.95
2023-02-13T13:25:40.631Z,10.82
2023-02-13T13:28:18.482Z,10.83
2023-02-13T13:30:46.771Z,10.77
2023-02-13T13:33:24.503Z,11.01
2023-02-13T13:36:14.800Z,11.03
2023-02-13T13:39:07.226Z,10.79
2023-02-13T13:41:49.946Z,10.61
2023-02-13T13:44:47.868Z,10.79
2023-02-13T13:47:43.928Z,10.61
2023-02-13T13:50:23.766Z,10.42
2023-02-13T13:53:10.088Z,10.37
2023-02-13T13:56:18.294Z,10.16
2023-02-13T13:58:46.763Z,9.94
2023-02-13T14:01:29.732Z,9.92
2023-02-13T14:04:24.099Z,9.90
2023-02-13T14:06:50.481Z,9.96
2023-02-13T14:09:38.459Z,10.06
2023-02-13T14:12:30.040Z,9.97
2023-02-13T14:14:58.612Z,9.92
2023-02-13T14:17:46.371Z,10.00
2023-02-13T14:20:27.031Z,9.89
2023-02-13T14:22:53.959Z,9.77
2023-02-13T14:25:34.976Z,9.72
2023-02-13T14:28:04.453Z,9.76
2023-02-13T14:30:40.552Z,9.67
2023-02-13T14:33:32.203Z,9.47
2023-02-13T14:36:08.745Z,9.39
2023-02-13T14:38:36.742Z,9.39
2023-02-13T14:41:04.220Z,9.28
2023-02-13T14:43:37.119Z,9.20
2023-02-13T14:46:24.691Z,9.20
2023-02-13T14:49:17.368Z,9.05
2023-02-13T14:51:53.145Z,8.97
2023-02-13T14:54:38.512Z,9.00
2023-02-13T14:57:10.373Z,8.96
2023-02-13T14:59:43.114Z,8.93
2023-02-13T15:02:15.086Z,8.85
2023-02-13T15:04:47.142Z,8.87
2023-02-13T15:07:26.580Z,8.80
2023-02-13T15:10:07.112Z,8.80
2023-02-13T15:12:36.706Z,8.74
2023-02-13T15:15:23.585Z,8.76
2023-02-13T15:17:50.836Z,8.69
2023-02-13T15:20:25.135Z,8.57
2023-02-13T15:22:52.366Z,8.49
2023-02-13T15:25:36.152Z,8.45
2023-02-13T15:28:05.178Z,8.45
2023-02-13T15:30:38.523Z,8.41
2023-02-13T15:33:18.635Z,8.37
2023-02-13T15:35:45.851Z,8.32
2023-02-13T15:38:26.815Z,8.29
2023-02-13T15:41:06.258Z,8.22
2023-02-13T15:43:43.711Z,8.16
2023-02-13T15:46:25.895Z,8.12
2023-02-13T15:48:54.223Z,8.05
2023-02-13T15:51:24.416Z,8.00
2023-02-13T15:54:03.145Z,7.98
2023-02-13T15:56:30.960Z,7.95
2023-02-13T15:59:00.139Z,7.78
2023-02-13T16:01:27.036Z,7.68
2023-02-13T16:04:06.704Z,7.70
2023-02-13T16:06:33.861Z,7.61
2023-02-13T16:09:01.402Z,7.49
2023-02-13T16:11:40.988Z,7.43
2023-02-13T16:14:20.830Z,7.31
2023-02-13T16:16:49.717Z,7.31
2023-02-13T16:19:39.101Z,7.20
2023-02-13T16:22:21.716Z,7.13
2023-02-13T16:24:51.959Z,6.99
2023-02-13T16:27:21.550Z,6.74
2023-02-13T16:29:58.673Z,6.58
2023-02-13T16:32:34.522Z,6.36
2023-02-13T16:35:22.801Z,6.22
2023-02-13T16:37:52.453Z,6.07
2023-02-13T16:40:31.238Z,5.96
2023-02-13T16:43:34.670Z,5.87
2023-02-13T16:46:29.471Z,5.77
2023-02-13T16:49:01.905Z,5.76
2023-02-13T16:51:48.141Z,5.66
2023-02-13T16:54:30.754Z,5.55
2023-02-13T16:57:01.042Z,5.47
2023-02-13T16:59:42.193Z,5.33
2023-02-13T17:02:19.095Z,5.23
2023-02-13T17:05:14.852Z,5.11
2023-02-13T17:07:48.210Z,4.94
2023-02-13T17:10:31.193Z,4.76
2023-02-13T17:13:19.219Z,4.65
2023-02-13T17:15:47.581Z,4.56
2023-02-13T17:18:16.126Z,4.66
2023-02-13T17:20:44.955Z,4.66
2023-02-13T17:23:21.212Z,4.56
2023-02-13T17:25:49.571Z,4.64
2023-02-13T17:28:22.706Z,4.61
2023-02-13T17:30:51.397Z,4.64
2023-02-13T17:33:22.347Z,4.70
2023-02-13T17:35:49.060Z,4.65
2023-02-13T17:38:15.842Z,4.66
2023-02-13T17:40:46.929Z,4.62
2023-02-13T17:43:16.187Z,4.45
2023-02-13T17:45:43.767Z,4.31
2023-02-13T17:48:11.421Z,4.20
2023-02-13T17:50:38.484Z,4.25
2023-02-13T17:53:19.996Z,4.21
2023-02-13T17:55:46.884Z,4.08
2023-02-13T17:58:13.284Z,3.98
2023-02-13T18:00:39.760Z,4.03
2023-02-13T18:03:06.359Z,4.04
2023-02-13T18:05:33.202Z,4.06
2023-02-13T18:08:03.910Z,3.96
2023-02-13T18:10:33.246Z,3.74
2023-02-13T18:13:04.372Z,3.66
2023-02-13T18:15:55.391Z,3.57
2023-02-13T18:18:21.920Z,3.53
2023-02-13T18:20:59.108Z,3.62
2023-02-13T18:23:28.074Z,3.62
2023-02-13T18:25:54.828Z,3.70
2023-02-13T18:28:21.485Z,3.74
2023-02-13T18:30:48.004Z,3.71
2023-02-13T18:33:14.456Z,3.54
2023-02-13T18:35:42.154Z,3.41
2023-02-13T18:38:13.860Z,3.19
2023-02-13T18:40:40.366Z,3.05
2023-02-13T18:43:06.825Z,3.04
2023-02-13T18:45:33.357Z,3.02
2023-02-13T18:48:00.028Z,2.95
2023-02-13T18:50:43.971Z,2.93
2023-02-13T18:53:10.977Z,2.91
2023-02-13T18:55:38.055Z,2.86
2023-02-13T18:58:04.797Z,2.91
2023-02-13T19:00:31.220Z,3.00
2023-02-13T19:02:59.006Z,3.05
2023-02-13T19:05:28.369Z,3.05
2023-02-13T19:07:54.833Z,3.14
2023-02-13T19:10:21.262Z,3.05
2023-02-13T19:12:48.340Z,3.02
2023-02-13T19:15:14.946Z,2.98
2023-02-13T19:17:41.406Z,2.98
2023-02-13T19:20:08.585Z,2.92
2023-02-13T19:22:35.167Z,3.04
2023-02-13T19:25:01.755Z,2.94
2023-02-13T19:27:28.607Z,2.82
2023-02-13T19:29:55.133Z,2.63
2023-02-13T19:32:23.696Z,2.55
2023-02-13T19:34:50.156Z,2.53
2023-02-13T19:37:16.629Z,2.34
2023-02-13T19:39:43.100Z,2.28
2023-02-13T19:42:09.593Z,2.37
2023-02-13T19:44:36.079Z,2.42
2023-02-13T19:47:02.591Z,2.36
2023-02-13T19:49:29.102Z,2.69
2023-02-13T19:52:04.324Z,2.82
2023-02-13T19:54:30.940Z,2.72
2023-02-13T19:57:00.448Z,2.59
2023-02-13T19:59:27.450Z,2.48
2023-02-13T20:01:54.139Z,2.45
2023-02-13T20:04:20.716Z,2.64
2023-02-13T20:06:47.169Z,2.81
2023-02-13T20:09:13.927Z,2.88
2023-02-13T20:11:41.440Z,2.94
2023-02-13T20:14:14.375Z,2.85
2023-02-13T20:16:42.838Z,2.78
2023-02-13T20:19:13.973Z,2.71
2023-02-13T20:21:41.677Z,2.49
2023-02-13T20:24:08.894Z,2.52
2023-02-13T20:26:35.551Z,2.67
2023-02-13T20:29:03.624Z,2.68
2023-02-13T20:31:36.774Z,2.69
2023-02-13T20:34:05.716Z,2.67
2023-02-13T20:36:32.552Z,2.57
2023-02-13T20:39:01.851Z,2.48
2023-02-13T20:41:31.240Z,2.45
2023-02-13T20:43:59.902Z,2.53
2023-02-13T20:46:28.916Z,2.48
2023-02-13T20:48:55.395Z,2.34
2023-02-13T20:51:21.932Z,2.18
2023-02-13T20:53:48.472Z,2.02
2023-02-13T20:56:17.767Z,1.98
2023-02-13T20:58:46.257Z,1.89
2023-02-13T21:01:20.119Z,1.89
2023-02-13T21:03:53.559Z,1.95
2023-02-13T21:06:21.629Z,2.21
2023-02-13T21:08:48.532Z,2.28
2023-02-13T21:11:15.485Z,2.32
2023-02-13T21:13:41.987Z,2.33
2023-02-13T21:16:15.347Z,2.33
2023-02-13T21:18:42.665Z,2.27
2023-02-13T21:21:11.312Z,2.11
2023-02-13T21:23:38.296Z,1.92
2023-02-13T21:26:10.561Z,1.85
2023-02-13T21:28:38.625Z,1.86
2023-02-13T21:31:07.458Z,1.63
2023-02-13T21:33:35.931Z,1.54
2023-02-13T21:36:05.078Z,1.41
2023-02-13T21:38:31.509Z,1.25
2023-02-13T21:41:30.536Z,1.11
2023-02-13T21:43:56.958Z,0.98
2023-02-13T21:46:26.187Z,0.95
2023-02-13T21:49:01.924Z,0.96
2023-02-13T21:51:30.198Z,0.99
2023-02-13T21:53:57.662Z,1.01
2023-02-13T21:56:27.325Z,0.96
2023-02-13T21:58:54.284Z,0.94
2023-02-13T22:01:26.842Z,0.94
2023-02-13T22:04:00.798Z,0.89
2023-02-13T22:06:30.125Z,0.82
2023-02-13T22:08:59.124Z,0.73
2023-02-13T22:11:26.150Z,0.68
2023-02-13T22:14:02.844Z,0.60
2023-02-13T22:16:37.839Z,0.50
2023-02-13T22:19:05.632Z,0.59
2023-02-13T22:21:38.088Z,0.59
2023-02-13T22:24:04.961Z,0.61
2023-02-13T22:26:35.709Z,0.73
2023-02-13T22:29:04.921Z,1.05
2023-02-13T22:31:32.112Z,1.21
2023-02-13T22:34:05.713Z,1.47
2023-02-13T22:36:40.313Z,1.70
2023-02-13T22:39:08.318Z,1.62
2023-02-13T22:41:35.051Z,1.61
2023-02-13T22:44:01.532Z,1.70
2023-02-13T22:46:32.610Z,1.80
2023-02-13T22:48:59.666Z,1.71
2023-02-13T22:51:28.936Z,1.22
2023-02-13T22:53:56.966Z,1.08
2023-02-13T22:56:25.051Z,1.02
2023-02-13T22:58:51.656Z,0.89
2023-02-13T23:01:22.386Z,0.83
2023-02-13T23:03:48.949Z,0.79
2023-02-13T23:06:16.529Z,0.69
2023-02-13T23:08:43.537Z,0.84
2023-02-13T23:11:34.215Z,0.92
2023-02-13T23:14:01.076Z,1.05
2023-02-13T23:16:28.732Z,1.09
2023-02-13T23:19:00.253Z,1.04
2023-02-13T23:21:39.628Z,0.96
2023-02-13T23:24:06.467Z,0.94
2023-02-13T23:26:32.907Z,0.89
2023-02-13T23:28:59.363Z,0.82
2023-02-13T23:31:25.884Z,0.77
2023-02-13T23:33:52.374Z,0.78
2023-02-13T23:36:18.847Z,0.77
2023-02-13T23:38:46.600Z,0.81
2023-02-13T23:41:13.071Z,0.89
2023-02-13T23:43:44.457Z,1.06
2023-02-13T23:46:12.446Z,1.16
2023-02-13T23:48:39.107Z,1.17
2023-02-13T23:51:05.782Z,1.27
2023-02-13T23:53:47.534Z,1.15
2023-02-13T23:56:14.405Z,1.11
2023-02-13T23:58:40.865Z,0.97
